createdAt,value
2019-05-06T00:00:30.118Z,8.10
2019-05-06T00:02:57.735Z,8.10
2019-05-06T00:05:26.761Z,8.10
2019-05-06T00:07:55.112Z,8.20
2019-05-06T00:10:28.469Z,8.10
2019-05-06T00:12:56.065Z,8.10
2019-05-06T00:15:23.794Z,8.00
2019-05-06T00:17:53.697Z,8.00
2019-05-06T00:20:19.042Z,8.00
2019-05-06T00:22:46.668Z,8.00
2019-05-06T00:25:16.912Z,8.00
2019-05-06T00:27:48.850Z,8.00
2019-05-06T00:30:17.194Z,8.10
2019-05-06T00:32:44.791Z,8.10
2019-05-06T00:35:14.195Z,7.90
2019-05-06T00:37:40.755Z,7.90
2019-05-06T00:40:09.067Z,8.00
2019-05-06T00:42:36.602Z,8.00
2019-05-06T00:45:04.971Z,8.20
2019-05-06T00:47:34.008Z,8.30
2019-05-06T00:50:00.946Z,8.20
2019-05-06T00:52:28.470Z,8.30
2019-05-06T00:54:55.992Z,8.20
2019-05-06T00:57:23.554Z,8.20
2019-05-06T00:59:53.727Z,8.20
2019-05-06T01:02:18.980Z,8.20
2019-05-06T01:04:46.641Z,8.40
2019-05-06T01:07:14.201Z,8.40
2019-05-06T01:09:43.823Z,8.60
2019-05-06T01:12:09.323Z,8.50
2019-05-06T01:14:36.853Z,8.40
2019-05-06T01:17:04.378Z,8.50
2019-05-06T01:19:31.905Z,8.40
2019-05-06T01:22:00.219Z,8.20
2019-05-06T01:24:27.774Z,8.20
2019-05-06T01:26:55.437Z,8.20
2019-05-06T01:29:24.108Z,8.40
2019-05-06T01:31:50.664Z,8.20
2019-05-06T01:34:18.187Z,8.40
2019-05-06T01:36:45.953Z,8.40
2019-05-06T01:39:14.269Z,8.50
2019-05-06T01:41:44.638Z,8.30
2019-05-06T01:44:10.243Z,8.10
2019-05-06T01:46:38.004Z,8.10
2019-05-06T01:49:05.529Z,8.10
2019-05-06T01:51:34.840Z,8.20
2019-05-06T01:54:03.514Z,8.20
2019-05-06T01:56:29.882Z,8.00
2019-05-06T01:58:57.443Z,8.00
2019-05-06T02:01:25.209Z,7.90
2019-05-06T02:03:53.845Z,8.20
2019-05-06T02:06:20.263Z,8.10
2019-05-06T02:08:47.816Z,8.20
2019-05-06T02:11:15.379Z,8.40
2019-05-06T02:13:44.212Z,8.30
2019-05-06T02:16:10.500Z,8.40
2019-05-06T02:18:38.059Z,8.20
2019-05-06T02:21:23.517Z,8.10
2019-05-06T02:23:49.803Z,8.10
2019-05-06T02:26:18.116Z,7.90
2019-05-06T02:28:46.600Z,8.00
2019-05-06T02:31:20.509Z,8.20
2019-05-06T02:33:51.684Z,8.10
2019-05-06T02:36:19.213Z,8.00
2019-05-06T02:38:51.432Z,7.90
2019-05-06T02:41:14.363Z,7.90
2019-05-06T02:43:43.547Z,7.70
2019-05-06T02:46:12.872Z,7.60
2019-05-06T02:48:44.153Z,7.60
2019-05-06T02:51:13.319Z,7.50
2019-05-06T02:53:39.298Z,7.60
2019-05-06T02:56:06.928Z,7.50
2019-05-06T02:58:34.486Z,7.40
2019-05-06T03:01:04.044Z,7.50
2019-05-06T03:03:33.755Z,7.50
2019-05-06T03:05:59.114Z,7.20
2019-05-06T03:08:27.417Z,7.20
2019-05-06T03:10:54.957Z,7.10
2019-05-06T03:13:23.616Z,7.10
2019-05-06T03:15:50.099Z,7.10
2019-05-06T03:18:17.658Z,7.20
2019-05-06T03:20:46.546Z,6.80
2019-05-06T03:23:14.855Z,6.90
2019-05-06T03:25:43.987Z,6.80
2019-05-06T03:28:10.013Z,6.80
2019-05-06T03:30:37.568Z,6.80
2019-05-06T03:33:40.107Z,6.90
2019-05-06T03:35:49.958Z,6.80
2019-05-06T03:38:03.684Z,6.80
2019-05-06T03:40:28.761Z,6.60
2019-05-06T03:42:56.287Z,6.60
2019-05-06T03:45:24.802Z,6.70
2019-05-06T03:48:05.748Z,6.80
2019-05-06T03:50:33.624Z,6.50
2019-05-06T03:52:59.023Z,6.50
2019-05-06T03:55:27.470Z,6.80
2019-05-06T03:57:55.774Z,6.80
2019-05-06T04:00:24.091Z,6.80
2019-05-06T04:02:53.682Z,6.80
2019-05-06T04:05:19.415Z,6.70
2019-05-06T04:07:47.007Z,6.80
2019-05-06T04:10:14.744Z,6.60
2019-05-06T04:12:43.437Z,6.50
2019-05-06T04:15:13.868Z,6.60
2019-05-06T04:17:44.524Z,6.60
2019-05-06T04:20:13.647Z,6.70
2019-05-06T04:22:47.790Z,6.70
2019-05-06T04:25:16.137Z,6.70
2019-05-06T04:27:53.798Z,6.80
2019-05-06T04:30:19.613Z,6.90
2019-05-06T04:32:47.139Z,7.00
2019-05-06T04:35:15.899Z,6.90
2019-05-06T04:37:43.485Z,6.90
2019-05-06T04:40:13.026Z,6.80
2019-05-06T04:42:39.391Z,6.70
2019-05-06T04:45:06.915Z,6.70
2019-05-06T04:47:35.769Z,6.70
2019-05-06T04:50:05.089Z,6.60
2019-05-06T04:52:34.269Z,6.70
2019-05-06T04:55:03.130Z,6.50
2019-05-06T04:57:28.637Z,6.60
2019-05-06T04:59:56.269Z,6.50
2019-05-06T05:02:23.826Z,6.50
2019-05-06T05:04:52.855Z,6.50
2019-05-06T05:07:19.044Z,6.30
2019-05-06T05:09:46.569Z,6.40
2019-05-06T05:12:14.909Z,6.30
2019-05-06T05:14:43.979Z,6.50
2019-05-06T05:17:12.847Z,6.50
2019-05-06T05:19:39.132Z,6.60
2019-05-06T05:22:06.791Z,6.60
2019-05-06T05:24:34.312Z,6.80
2019-05-06T05:27:03.197Z,7.30
2019-05-06T05:29:29.566Z,7.30
2019-05-06T05:31:57.230Z,7.40
2019-05-06T05:34:37.135Z,7.60
2019-05-06T05:36:52.895Z,7.70
2019-05-06T05:39:22.246Z,7.90
2019-05-06T05:41:48.017Z,8.00
2019-05-06T05:44:16.158Z,8.20
2019-05-06T05:46:43.900Z,8.40
2019-05-06T05:49:19.209Z,8.40
2019-05-06T05:51:45.488Z,8.50
2019-05-06T05:54:13.084Z,8.60
2019-05-06T05:56:42.984Z,8.60
2019-05-06T05:59:09.038Z,8.60
2019-05-06T06:01:36.618Z,8.60
2019-05-06T06:04:04.147Z,8.60
2019-05-06T06:06:33.209Z,8.60
2019-05-06T06:08:59.436Z,8.60
2019-05-06T06:11:27.612Z,8.70
2019-05-06T06:13:55.203Z,8.70
2019-05-06T06:16:24.231Z,8.70
2019-05-06T06:18:54.353Z,8.70
2019-05-06T06:21:27.905Z,8.70
2019-05-06T06:23:52.889Z,8.70
2019-05-06T06:26:19.291Z,8.70
2019-05-06T06:28:46.817Z,8.70
2019-05-06T06:31:16.190Z,8.80
2019-05-06T06:33:44.569Z,8.80
2019-05-06T06:36:17.932Z,8.80
2019-05-06T06:38:46.356Z,8.90
2019-05-06T06:41:13.978Z,8.90
2019-05-06T06:43:42.122Z,8.90
2019-05-06T06:46:09.533Z,9.00
2019-05-06T06:48:36.893Z,9.00
2019-05-06T06:51:04.524Z,9.00
2019-05-06T06:53:32.704Z,9.00
2019-05-06T06:56:05.343Z,9.00
2019-05-06T06:58:33.109Z,9.00
2019-05-06T07:01:07.740Z,9.00
2019-05-06T07:03:38.779Z,9.00
2019-05-06T07:06:06.925Z,9.10
2019-05-06T07:08:37.585Z,9.00
2019-05-06T07:11:02.275Z,9.10
2019-05-06T07:13:29.650Z,9.10
2019-05-06T07:15:58.430Z,9.10
2019-05-06T07:18:25.961Z,9.10
2019-05-06T07:20:54.545Z,9.10
2019-05-06T07:23:23.543Z,9.10
2019-05-06T07:25:53.532Z,9.20
2019-05-06T07:28:18.757Z,9.20
2019-05-06T07:30:47.062Z,9.20
2019-05-06T07:33:14.622Z,9.20
2019-05-06T07:35:43.932Z,9.20
2019-05-06T07:38:11.896Z,9.20
2019-05-06T07:40:38.148Z,9.30
2019-05-06T07:43:12.754Z,9.20
2019-05-06T07:45:39.374Z,9.30
2019-05-06T07:48:07.718Z,9.20
2019-05-06T07:50:35.444Z,9.20
2019-05-06T07:53:06.383Z,9.40
2019-05-06T07:55:33.905Z,9.30
2019-05-06T07:58:02.904Z,9.30
2019-05-06T08:00:29.840Z,9.40
2019-05-06T08:02:57.467Z,9.40
2019-05-06T08:05:25.299Z,9.40
2019-05-06T08:07:55.195Z,9.50
2019-05-06T08:10:22.124Z,9.40
2019-05-06T08:12:52.525Z,9.50
2019-05-06T08:15:17.877Z,9.50
2019-05-06T08:17:45.653Z,9.50
2019-05-06T08:20:13.311Z,9.60
2019-05-06T08:22:43.905Z,9.70
2019-05-06T08:25:12.189Z,9.70
2019-05-06T08:27:39.020Z,9.80
2019-05-06T08:30:07.322Z,9.90
2019-05-06T08:32:34.982Z,9.90
2019-05-06T08:35:03.374Z,10.00
2019-05-06T08:37:32.113Z,10.10
2019-05-06T08:39:58.581Z,10.20
2019-05-06T08:42:26.993Z,10.10
2019-05-06T08:44:55.990Z,10.10
2019-05-06T08:47:23.546Z,10.20
2019-05-06T08:49:57.623Z,10.30
2019-05-06T08:52:25.186Z,10.40
2019-05-06T08:54:53.502Z,10.60
2019-05-06T08:57:22.799Z,10.60
2019-05-06T09:00:09.471Z,10.70
2019-05-06T09:02:36.962Z,10.60
2019-05-06T09:05:05.225Z,10.40
2019-05-06T09:07:32.716Z,10.40
2019-05-06T09:10:02.508Z,10.30
2019-05-06T09:12:28.568Z,10.30
2019-05-06T09:14:56.821Z,10.40
2019-05-06T09:17:24.387Z,10.40
2019-05-06T09:19:53.453Z,10.50
2019-05-06T09:22:19.389Z,10.60
2019-05-06T09:24:46.871Z,10.80
2019-05-06T09:27:16.932Z,11.00
2019-05-06T09:29:45.331Z,11.00
2019-05-06T09:32:14.064Z,11.00
2019-05-06T09:34:43.163Z,11.10
2019-05-06T09:37:13.038Z,11.00
2019-05-06T09:39:37.981Z,11.00
2019-05-06T09:42:05.461Z,10.90
2019-05-06T09:44:33.097Z,11.00
2019-05-06T09:47:02.385Z,11.00
2019-05-06T09:49:27.932Z,11.00
2019-05-06T09:51:55.400Z,11.10
2019-05-06T09:54:24.720Z,11.10
2019-05-06T09:56:54.500Z,11.10
2019-05-06T09:59:22.053Z,11.20
2019-05-06T10:01:52.826Z,11.20
2019-05-06T10:04:18.577Z,11.20
2019-05-06T10:06:56.422Z,11.30
2019-05-06T10:09:15.684Z,11.20
2019-05-06T10:11:42.576Z,11.20
2019-05-06T10:14:12.577Z,11.20
2019-05-06T10:16:38.311Z,11.20
2019-05-06T10:19:05.835Z,11.20
2019-05-06T10:21:33.352Z,11.20
2019-05-06T10:24:02.184Z,11.30
2019-05-06T10:26:29.095Z,11.20
2019-05-06T10:28:57.346Z,11.20
2019-05-06T10:31:24.833Z,11.30
2019-05-06T10:33:57.945Z,11.20
2019-05-06T10:36:26.604Z,11.20
2019-05-06T10:38:56.024Z,11.20
2019-05-06T10:41:24.385Z,11.10
2019-05-06T10:43:52.701Z,11.10
2019-05-06T10:46:22.558Z,11.10
2019-05-06T10:48:48.421Z,11.10
2019-05-06T10:51:19.589Z,11.10
2019-05-06T10:53:47.893Z,11.20
2019-05-06T10:56:23.059Z,11.10
2019-05-06T10:58:49.539Z,11.10
2019-05-06T11:01:18.916Z,11.20
2019-05-06T11:03:46.378Z,11.30
2019-05-06T11:06:13.847Z,11.30
2019-05-06T11:08:42.107Z,11.40
2019-05-06T11:11:15.284Z,11.50
2019-05-06T11:13:36.282Z,11.70
2019-05-06T11:16:04.524Z,11.90
2019-05-06T11:18:33.454Z,11.80
2019-05-06T11:20:59.587Z,11.90
2019-05-06T11:23:28.059Z,12.00
2019-05-06T11:25:55.525Z,12.00
2019-05-06T11:28:28.607Z,12.00
2019-05-06T11:31:02.766Z,11.90
2019-05-06T11:36:32.164Z,12.30
2019-05-06T11:38:58.538Z,12.20
2019-05-06T11:41:26.618Z,12.20
2019-05-06T11:43:54.727Z,12.10
2019-05-06T11:46:22.894Z,12.20
2019-05-06T11:48:49.737Z,12.30
2019-05-06T11:51:17.281Z,12.30
2019-05-06T11:53:44.815Z,12.20
2019-05-06T11:56:13.314Z,12.30
2019-05-06T11:58:42.718Z,12.30
2019-05-06T12:01:09.319Z,12.50
2019-05-06T12:03:36.885Z,12.30
2019-05-06T12:06:04.369Z,12.10
2019-05-06T12:08:32.705Z,12.50
2019-05-06T12:11:02.959Z,12.80
2019-05-06T12:13:29.287Z,12.70
2019-05-06T12:15:56.843Z,12.60
2019-05-06T12:18:24.321Z,12.70
2019-05-06T12:20:52.734Z,12.50
2019-05-06T12:23:19.335Z,12.70
2019-05-06T12:25:46.864Z,12.90
2019-05-06T12:28:17.469Z,12.80
2019-05-06T12:30:42.731Z,12.70
2019-05-06T12:36:06.842Z,12.50
2019-05-06T12:38:34.765Z,12.50
2019-05-06T12:41:03.303Z,12.60
2019-05-06T12:43:39.668Z,12.60
2019-05-06T12:46:13.273Z,13.00
2019-05-06T12:49:03.080Z,12.90
2019-05-06T12:51:28.267Z,12.90
2019-05-06T12:53:55.752Z,13.00
2019-05-06T12:56:23.991Z,12.70
2019-05-06T12:58:52.555Z,12.70
2019-05-06T13:01:20.935Z,12.50
2019-05-06T13:03:48.495Z,12.50
2019-05-06T13:06:16.000Z,12.60
2019-05-06T13:08:56.476Z,12.60
2019-05-06T13:11:13.004Z,12.60
2019-05-06T13:13:53.147Z,12.40
2019-05-06T13:16:06.169Z,12.50
2019-05-06T13:18:33.629Z,12.70
2019-05-06T13:21:05.858Z,12.60
2019-05-06T13:23:29.562Z,12.60
2019-05-06T13:25:57.111Z,12.70
2019-05-06T13:28:24.735Z,12.70
2019-05-06T13:31:11.895Z,12.70
2019-05-06T13:33:33.637Z,12.70
2019-05-06T13:38:42.689Z,12.50
2019-05-06T13:41:12.807Z,12.50
2019-05-06T13:43:43.364Z,12.60
2019-05-06T13:46:12.483Z,12.60
2019-05-06T13:48:42.542Z,12.60
2019-05-06T13:51:12.298Z,12.60
2019-05-06T13:53:45.680Z,12.60
2019-05-06T13:56:13.976Z,12.70
2019-05-06T13:58:43.080Z,12.70
2019-05-06T14:01:08.961Z,12.70
2019-05-06T14:03:36.478Z,12.70
2019-05-06T14:06:03.983Z,12.90
2019-05-06T14:08:33.031Z,12.70
2019-05-06T14:11:00.089Z,12.50
2019-05-06T14:13:26.568Z,12.30
2019-05-06T14:15:54.778Z,12.20
2019-05-06T14:18:22.619Z,12.20
2019-05-06T14:20:51.979Z,12.60
2019-05-06T14:23:18.169Z,12.70
2019-05-06T14:25:45.638Z,12.70
2019-05-06T14:28:13.805Z,12.70
2019-05-06T14:30:47.921Z,12.70
2019-05-06T14:33:15.675Z,12.90
2019-05-06T14:35:43.161Z,13.10
2019-05-06T14:38:13.598Z,13.40
2019-05-06T14:40:43.630Z,13.00
2019-05-06T14:43:13.432Z,13.20
2019-05-06T14:45:38.758Z,13.00
2019-05-06T14:48:08.325Z,13.00
2019-05-06T14:50:46.184Z,12.90
2019-05-06T14:53:04.673Z,12.90
2019-05-06T14:55:33.408Z,13.20
2019-05-06T14:58:04.317Z,13.20
2019-05-06T15:00:29.161Z,12.70
2019-05-06T15:02:56.657Z,12.70
2019-05-06T15:05:24.164Z,12.50
2019-05-06T15:07:52.877Z,12.30
2019-05-06T15:10:23.371Z,12.70
2019-05-06T15:12:46.734Z,12.60
2019-05-06T15:15:14.990Z,11.90
2019-05-06T15:17:43.171Z,11.90
2019-05-06T15:20:12.724Z,12.10
2019-05-06T15:22:42.079Z,12.30
2019-05-06T15:25:08.611Z,12.10
2019-05-06T15:27:36.099Z,12.00
2019-05-06T15:30:03.601Z,11.50
2019-05-06T15:32:31.259Z,11.50
2019-05-06T15:35:02.610Z,11.20
2019-05-06T15:40:31.872Z,11.10
2019-05-06T15:42:48.651Z,11.20
2019-05-06T15:45:16.136Z,11.20
2019-05-06T15:47:44.708Z,11.50
2019-05-06T15:50:13.030Z,11.70
2019-05-06T15:52:43.495Z,11.60
2019-05-06T15:55:08.894Z,11.60
2019-05-06T15:57:36.490Z,11.50
2019-05-06T16:00:04.782Z,12.80
2019-05-06T16:02:33.907Z,12.70
2019-05-06T16:04:59.771Z,13.30
2019-05-06T16:07:27.521Z,12.90
2019-05-06T16:09:55.532Z,12.40
2019-05-06T16:12:22.531Z,12.40
2019-05-06T16:14:50.037Z,12.30
2019-05-06T16:17:17.606Z,12.30
2019-05-06T16:19:45.542Z,12.70
2019-05-06T16:22:13.160Z,12.60
2019-05-06T16:24:43.101Z,12.40
2019-05-06T16:27:08.276Z,12.00
2019-05-06T16:29:35.839Z,12.40
2019-05-06T16:32:04.839Z,11.90
2019-05-06T16:34:32.432Z,11.70
2019-05-06T16:37:01.796Z,11.90
2019-05-06T16:39:27.552Z,11.90
2019-05-06T16:41:55.031Z,12.40
2019-05-06T16:44:23.374Z,12.30
2019-05-06T16:46:52.083Z,12.20
2019-05-06T16:49:18.401Z,12.00
2019-05-06T16:51:45.895Z,12.10
2019-05-06T16:54:14.615Z,12.30
2019-05-06T16:56:44.687Z,12.30
2019-05-06T16:59:10.822Z,12.10
2019-05-06T17:01:38.479Z,12.30
2019-05-06T17:04:09.418Z,12.50
2019-05-06T17:06:37.588Z,12.50
2019-05-06T17:09:17.332Z,12.20
2019-05-06T17:11:34.609Z,12.20
2019-05-06T17:14:03.075Z,12.50
2019-05-06T17:18:58.182Z,12.30
2019-05-06T17:21:27.248Z,12.90
2019-05-06T17:23:54.772Z,13.00
2019-05-06T17:26:23.030Z,12.50
2019-05-06T17:31:57.803Z,13.30
2019-05-06T17:34:25.941Z,13.70
2019-05-06T17:36:53.659Z,12.60
2019-05-06T17:39:22.706Z,12.20
2019-05-06T17:41:49.415Z,11.70
2019-05-06T17:44:17.618Z,11.80
2019-05-06T17:46:46.886Z,11.80
2019-05-06T17:49:24.642Z,11.80
2019-05-06T17:51:58.483Z,11.70
2019-05-06T17:54:26.076Z,11.60
2019-05-06T17:56:53.545Z,11.50
2019-05-06T17:59:21.084Z,11.50
2019-05-06T18:01:48.569Z,11.60
2019-05-06T18:04:16.152Z,11.70
2019-05-06T18:06:43.660Z,11.80
2019-05-06T18:09:12.605Z,11.80
2019-05-06T18:11:39.148Z,11.70
2019-05-06T18:14:06.723Z,12.00
2019-05-06T18:16:36.595Z,11.70
2019-05-06T18:19:04.336Z,11.40
2019-05-06T18:21:32.256Z,11.10
2019-05-06T18:23:59.937Z,11.10
2019-05-06T18:26:27.418Z,10.90
2019-05-06T18:28:58.359Z,11.50
2019-05-06T18:31:23.968Z,11.60
2019-05-06T18:33:52.738Z,11.60
2019-05-06T18:36:18.977Z,11.50
2019-05-06T18:38:46.454Z,11.10
2019-05-06T18:41:13.970Z,11.20
2019-05-06T18:43:42.265Z,11.20
2019-05-06T18:46:08.981Z,11.40
2019-05-06T18:48:36.597Z,11.10
2019-05-06T18:51:04.128Z,10.80
2019-05-06T18:53:33.154Z,11.20
2019-05-06T18:55:59.198Z,10.80
2019-05-06T18:58:26.767Z,10.80
2019-05-06T19:00:54.242Z,10.90
2019-05-06T19:03:22.588Z,11.50
2019-05-06T19:05:52.880Z,11.10
2019-05-06T19:08:21.862Z,10.90
2019-05-06T19:10:47.229Z,10.90
2019-05-06T19:13:14.823Z,10.60
2019-05-06T19:15:42.308Z,10.50
2019-05-06T19:18:09.821Z,10.70
2019-05-06T19:20:37.294Z,11.00
2019-05-06T19:23:04.850Z,10.80
2019-05-06T19:25:34.677Z,10.60
2019-05-06T19:28:02.029Z,10.40
2019-05-06T19:30:27.551Z,10.40
2019-05-06T19:32:56.546Z,10.20
2019-05-06T19:35:26.762Z,10.20
2019-05-06T19:37:54.542Z,10.20
2019-05-06T19:40:22.931Z,10.40
2019-05-06T19:42:51.142Z,10.30
2019-05-06T19:45:17.067Z,10.20
2019-05-06T19:47:45.386Z,10.20
2019-05-06T19:50:12.857Z,10.20
2019-05-06T19:52:42.161Z,10.10
2019-05-06T19:55:08.105Z,10.10
2019-05-06T19:57:36.303Z,10.20
2019-05-06T20:00:05.551Z,10.40
2019-05-06T20:02:33.168Z,10.40
2019-05-06T20:05:03.178Z,10.20
2019-05-06T20:07:32.907Z,10.20
2019-05-06T20:10:03.831Z,10.00
2019-05-06T20:12:32.771Z,9.90
2019-05-06T20:15:04.637Z,10.30
2019-05-06T20:17:32.789Z,10.10
2019-05-06T20:20:02.750Z,10.00
2019-05-06T20:22:28.806Z,10.40
2019-05-06T20:24:56.319Z,10.40
2019-05-06T20:27:23.850Z,10.60
2019-05-06T20:29:52.388Z,10.20
2019-05-06T20:32:19.680Z,10.20
2019-05-06T20:34:49.936Z,10.00
2019-05-06T20:37:14.757Z,10.10
2019-05-06T20:39:43.231Z,10.10
2019-05-06T20:42:09.792Z,10.20
2019-05-06T20:44:37.414Z,9.90
2019-05-06T20:47:05.060Z,9.80
2019-05-06T20:49:33.271Z,9.70
2019-05-06T20:52:01.019Z,10.00
2019-05-06T20:54:28.528Z,10.00
2019-05-06T20:56:55.999Z,9.70
2019-05-06T20:59:23.605Z,9.60
2019-05-06T21:01:51.171Z,9.60
2019-05-06T21:04:18.725Z,9.90
2019-05-06T21:06:46.411Z,10.00
2019-05-06T21:09:13.903Z,10.30
2019-05-06T21:11:42.087Z,10.00
2019-05-06T21:14:08.966Z,9.80
2019-05-06T21:16:36.567Z,10.00
2019-05-06T21:19:04.994Z,9.90
2019-05-06T21:21:32.497Z,9.90
2019-05-06T21:24:01.898Z,9.60
2019-05-06T21:26:27.579Z,9.60
2019-05-06T21:28:55.184Z,9.60
2019-05-06T21:31:22.783Z,9.70
2019-05-06T21:33:52.262Z,9.60
2019-05-06T21:36:19.827Z,9.60
2019-05-06T21:38:47.396Z,9.40
2019-05-06T21:41:17.645Z,9.20
2019-05-06T21:43:49.057Z,9.30
2019-05-06T21:46:12.918Z,9.30
2019-05-06T21:48:38.624Z,9.40
2019-05-06T21:51:06.147Z,9.60
2019-05-06T21:53:33.793Z,9.70
2019-05-06T21:56:02.186Z,9.70
2019-05-06T21:58:30.624Z,9.70
2019-05-06T22:00:58.132Z,9.70
2019-05-06T22:03:25.597Z,9.70
2019-05-06T22:05:54.666Z,9.70
2019-05-06T22:08:21.552Z,9.60
2019-05-06T22:10:49.705Z,9.50
2019-05-06T22:13:17.181Z,9.50
2019-05-06T22:15:44.655Z,9.40
2019-05-06T22:18:12.580Z,9.40
2019-05-06T22:20:45.380Z,9.50
2019-05-06T22:23:14.553Z,9.50
2019-05-06T22:25:42.164Z,9.50
2019-05-06T22:28:09.652Z,9.50
2019-05-06T22:30:37.896Z,9.60
2019-05-06T22:33:05.398Z,9.50
2019-05-06T22:35:33.658Z,9.50
2019-05-06T22:38:02.875Z,9.50
2019-05-06T22:40:28.694Z,9.50
2019-05-06T22:42:56.189Z,9.40
2019-05-06T22:45:23.777Z,9.40
2019-05-06T22:47:51.506Z,9.50
2019-05-06T22:50:19.860Z,9.20
2019-05-06T22:52:48.121Z,9.20
2019-05-06T22:55:15.698Z,9.20
2019-05-06T22:57:43.766Z,9.20
2019-05-06T23:00:12.575Z,9.20
2019-05-06T23:02:40.390Z,9.30
2019-05-06T23:05:07.871Z,9.30
2019-05-06T23:07:35.459Z,9.30
2019-05-06T23:10:05.336Z,9.30
2019-05-06T23:12:32.944Z,9.30
2019-05-06T23:15:02.502Z,9.30
2019-05-06T23:17:27.929Z,9.30
2019-05-06T23:19:55.496Z,9.20
2019-05-06T23:22:23.096Z,9.30
2019-05-06T23:24:53.840Z,9.30
2019-05-06T23:27:18.938Z,9.30
2019-05-06T23:29:46.453Z,9.30
2019-05-06T23:32:14.151Z,9.30
2019-05-06T23:34:43.282Z,9.20
2019-05-06T23:37:24.547Z,9.10
2019-05-06T23:40:03.930Z,9.10
2019-05-06T23:42:43.628Z,9.10
2019-05-06T23:45:23.245Z,9.10
2019-05-06T23:48:02.619Z,9.10
2019-05-06T23:50:42.806Z,9.10
2019-05-06T23:53:22.954Z,9.10
2019-05-06T23:56:02.829Z,9.20
2019-05-06T23:58:29.286Z,9.20
